• Join FlightAware (Why Join?)
  • Login
  • US Flag 
02:46PM EDT


 

Airport Tracker/Info


-or-


 

Live Flight TrackerFlight Track Log ✈ TAM3129 ✈ 24-May-2013 ✈ SBVT / VIX - SBSP / CGH

Flight Track Log - Related Links

Times and Time Zones

All times are in EDT time to prevent confusion due to time zone crossing. See the TAM3129 flight status page for this flight to view local times or setup timezone preferences in your user account.

Time Position Orientation Groundspeed Altitude Reporting Facility
EDT Latitude Longitude Course Direction KTS MPH feet Rate Location/Type
05:25AM -21.1794 -41.9546 239° Southwest  Level Estimated
05:26AM -21.2251 -42.0386 240° Southwest  Level Estimated
05:27AM -21.2707 -42.1226 240° Southwest  Level Estimated
05:28AM -21.3162 -42.2066 240° Southwest  Level Estimated
05:29AM -21.3618 -42.2907 240° Southwest  Level Estimated
05:30AM -21.4072 -42.3749 240° Southwest  Level Estimated
05:31AM -21.4527 -42.4591 240° Southwest  Level Estimated
05:32AM -21.4981 -42.5433 240° Southwest  Level Estimated
05:33AM -21.5434 -42.6276 240° Southwest  Level Estimated
05:34AM -21.5887 -42.7120 240° Southwest  Level Estimated
05:35AM -21.6340 -42.7964 240° Southwest  Level Estimated
05:36AM -21.6792 -42.8809 240° Southwest  Level Estimated
05:37AM -21.7244 -42.9654 240° Southwest  Level Estimated
05:38AM -21.7695 -43.0500 240° Southwest  Level Estimated
05:39AM -21.8146 -43.1346 240° Southwest  Level Estimated
05:40AM -21.8597 -43.2193 240° Southwest  Level Estimated
05:41AM -21.9047 -43.3041 240° Southwest  Level Estimated
05:42AM -21.9496 -43.3888 240° Southwest  Level Estimated
05:43AM -21.9946 -43.4737 240° Southwest  Level Estimated
05:44AM -22.0394 -43.5586 240° Southwest  Level Estimated
05:45AM -22.0843 -43.6435 240° Southwest  Level Estimated
05:46AM -22.1290 -43.7285 240° Southwest  Level Estimated
05:47AM -22.1738 -43.8136 240° Southwest  Level Estimated
05:48AM -22.2185 -43.8987 240° Southwest  Level Estimated
05:49AM -22.2631 -43.9839 240° Southwest  Level Estimated
05:50AM -22.3078 -44.0691 240° Southwest  Level Estimated
05:51AM -22.3523 -44.1544 241° Southwest  Level Estimated
05:52AM -22.3969 -44.2397 241° Southwest  Level Estimated
05:53AM -22.4413 -44.3251 241° Southwest  Level Estimated
05:54AM -22.4858 -44.4105 241° Southwest  Level Estimated
05:55AM -22.5301 -44.4960 241° Southwest  Level Estimated
05:56AM -22.5745 -44.5816 241° Southwest  Level Estimated
05:57AM -22.6188 -44.6672 241° Southwest  Level Estimated
05:58AM -22.6630 -44.7529 241° Southwest  Level Estimated
05:59AM -22.7073 -44.8386 241° Southwest  Level Estimated
06:00AM -22.7514 -44.9244 241° Southwest  Level Estimated
06:01AM -22.7955 -45.0102 241° Southwest  Level Estimated
06:02AM -22.8396 -45.0961 241° Southwest  Level Estimated
06:03AM -22.8836 -45.1820 241° Southwest  Level Estimated
06:04AM -22.9276 -45.2680 241° Southwest  Level Estimated
06:05AM -22.9715 -45.3540 241° Southwest  Level Estimated
06:06AM -23.0154 -45.4402 241° Southwest  Level Estimated
06:07AM -23.0592 -45.5263 241° Southwest  Level Estimated
06:08AM -23.1030 -45.6125 241° Southwest  Level Estimated
06:09AM -23.1468 -45.6988 241° Southwest  Level Estimated
06:10AM -23.1905 -45.7851 241° Southwest  Level Estimated
06:11AM -23.2341 -45.8715 241° Southwest  Level Estimated
06:12AM -23.2777 -45.9580 241° Southwest  Level Estimated
06:13AM -23.3213 -46.0445 241° Southwest  Level Estimated
06:14AM -23.3648 -46.1310 241° Southwest  Level Estimated
06:15AM -23.4082 -46.2176 241° Southwest  Level Estimated
06:16AM -23.4516 -46.3043 241° Southwest  Level Estimated
06:17AM -23.4950 -46.3910 241° Southwest  Level Estimated
06:18AM -23.5383 -46.4778 241° Southwest  Level Estimated
06:19AM -23.5816 -46.5647 241° Southwest  Level Estimated
06:20AM -23.6248 -46.6516 241° Southwest  Level Estimated
06:21AM -23.6267 -46.6554 242° Southwest  Level Estimated
06:22AM -23.6267 -46.6554 114° Southeast  Level Estimated
06:23AM -23.6267 -46.6554 114° Southeast  Level Estimated
06:24AM -23.6267 -46.6554 114° Southeast  Level Estimated
06:25AM -23.6267 -46.6554 114° Southeast  Level Estimated
06:26AM -23.6267 -46.6554 114° Southeast  Level Estimated
06:27AM -23.6267 -46.6554 114° Southeast  Level Estimated
06:28AM -23.6267 -46.6554 114° Southeast  Level Estimated
06:29AM -23.6267 -46.6554 114° Southeast  Level Estimated
06:30AM -23.6267 -46.6554 114° Southeast  Level Estimated
06:31AM -23.6267 -46.6554 114° Southeast  Level Estimated
06:32AM -23.6267 -46.6554 114° Southeast  Level Estimated
06:33AM -23.6267 -46.6554 114° Southeast  Level Estimated
06:34AM -23.6267 -46.6554 114° Southeast  Level Estimated
06:35AM -23.6267 -46.6554 114° Southeast  Level Estimated
06:36AM -23.6267 -46.6554 114° Southeast  Level Estimated